Time;durP1;ratioP1;P1;durP2;ratioP2;P2;SDS_P1;SDS_P2;PMS_P1;PMS_P2;Temp;Humidity;BMP_temperature;BMP_pressure;BME280_temperature;BME280_humidity;BME280_pressure;Samples;Min_cycle;Max_cycle;Signal;HPM_P1;HPM_P2
2024/01/18 00:00:34;;;;;;;65.63;34.20;;;;;;;3.92;100.00;99231.16;5070464;28;20043;-72
2024/01/18 00:03:00;;;;;;;63.50;36.10;;;;;;;3.59;100.00;99225.22;5064696;27;20799;-72
2024/01/18 00:05:26;;;;;;;71.63;38.00;;;;;;;3.59;100.00;99229.66;5091490;27;20035;-75
2024/01/18 00:07:51;;;;;;;66.85;37.42;;;;;;;3.73;100.00;99231.44;5092638;27;20055;-75
2024/01/18 00:10:17;;;;;;;61.75;33.83;;;;;;;3.70;100.00;99242.16;5095585;27;20032;-73
2024/01/18 00:12:42;;;;;;;62.15;35.38;;;;;;;3.74;100.00;99241.03;5099523;27;20118;-73
2024/01/18 00:15:08;;;;;;;59.63;33.50;;;;;;;3.80;100.00;99244.16;5093096;27;20048;-72
2024/01/18 00:17:34;;;;;;;61.83;35.88;;;;;;;3.78;100.00;99243.41;5101924;27;20641;-75
2024/01/18 00:19:59;;;;;;;62.35;34.17;;;;;;;3.84;100.00;99250.09;5088744;27;20029;-72
2024/01/18 00:22:25;;;;;;;58.30;32.90;;;;;;;3.93;100.00;99248.69;5100825;27;20032;-74
2024/01/18 00:24:51;;;;;;;65.70;34.92;;;;;;;3.96;100.00;99259.88;5096069;27;20027;-73
2024/01/18 00:27:16;;;;;;;70.40;36.15;;;;;;;3.81;100.00;99268.72;5078963;27;20113;-74
2024/01/18 00:29:42;;;;;;;66.63;34.90;;;;;;;3.91;100.00;99269.84;5090211;27;20135;-73
2024/01/18 00:32:08;;;;;;;59.10;33.13;;;;;;;3.90;100.00;99271.63;5087020;27;20133;-75
2024/01/18 00:34:33;;;;;;;55.55;32.40;;;;;;;4.00;100.00;99271.09;5099800;27;20130;-74
2024/01/18 00:36:59;;;;;;;59.85;32.38;;;;;;;4.08;100.00;99276.75;5101780;27;20035;-74
2024/01/18 00:39:24;;;;;;;55.65;33.13;;;;;;;4.10;100.00;99278.31;5092878;27;20028;-74
2024/01/18 00:41:50;;;;;;;59.40;32.60;;;;;;;4.23;100.00;99261.75;5103237;27;20521;-73
2024/01/18 00:44:15;;;;;;;56.80;32.35;;;;;;;4.29;100.00;99267.47;5089583;27;20312;-74
2024/01/18 00:46:41;;;;;;;60.05;32.50;;;;;;;4.54;100.00;99279.97;5090645;27;20069;-74
2024/01/18 00:49:06;;;;;;;57.65;32.00;;;;;;;4.82;98.40;99279.06;5096363;27;20082;-74
2024/01/18 00:51:32;;;;;;;63.90;34.88;;;;;;;4.91;97.01;99272.31;5098982;27;20032;-73
2024/01/18 00:53:57;;;;;;;62.70;34.70;;;;;;;5.11;95.73;99284.19;5107194;27;20412;-74
2024/01/18 00:56:23;;;;;;;59.25;32.15;;;;;;;2.89;94.21;99294.38;5096947;27;20037;-75
2024/01/18 00:58:49;;;;;;;54.42;30.27;;;;;;;0.50;100.00;99293.63;5090655;27;20118;-74
2024/01/18 01:01:15;;;;;;;57.85;29.27;;;;;;;-0.11;100.00;99302.53;5091781;27;20332;-74
2024/01/18 01:03:41;;;;;;;59.40;32.67;;;;;;;-0.40;100.00;99313.44;5068962;27;20036;-74
2024/01/18 01:06:10;;;;;;;61.28;32.88;;;;;;;-0.57;100.00;99315.03;5089687;27;20040;-74
2024/01/18 01:08:35;;;;;;;63.30;34.88;;;;;;;-0.67;100.00;99315.50;5089183;27;20502;-74
2024/01/18 01:11:03;;;;;;;62.42;34.28;;;;;;;-0.71;100.00;99324.38;5092096;27;20028;-73
2024/01/18 01:13:29;;;;;;;63.70;32.65;;;;;;;-0.77;100.00;99327.25;5095206;27;20039;-74
2024/01/18 01:15:54;;;;;;;64.35;32.75;;;;;;;-0.83;100.00;99337.06;5077465;28;20036;-75
2024/01/18 01:18:20;;;;;;;62.20;34.45;;;;;;;-0.94;100.00;99346.28;5087679;27;20887;-74
2024/01/18 01:20:45;;;;;;;64.63;36.17;;;;;;;-0.96;100.00;99345.47;5080577;27;20051;-73
2024/01/18 01:23:11;;;;;;;67.90;33.65;;;;;;;-0.97;100.00;99351.63;5078243;27;20315;-74
2024/01/18 01:25:36;;;;;;;68.32;34.50;;;;;;;-0.98;100.00;99348.16;5091977;27;20433;-75
2024/01/18 01:28:02;;;;;;;58.90;33.53;;;;;;;-1.02;100.00;99354.41;5097406;27;20028;-74
2024/01/18 01:30:27;;;;;;;63.55;34.88;;;;;;;-0.97;100.00;99357.69;5097487;27;20117;-74
2024/01/18 01:32:53;;;;;;;62.22;32.30;;;;;;;-0.95;100.00;99358.50;5097779;27;20031;-74
2024/01/18 01:35:18;;;;;;;64.93;32.20;;;;;;;-0.94;100.00;99357.59;5083120;27;20041;-74
2024/01/18 01:37:43;;;;;;;61.40;34.95;;;;;;;-0.92;100.00;99358.38;5092881;27;20038;-75
2024/01/18 01:40:09;;;;;;;58.97;33.72;;;;;;;-0.93;100.00;99353.19;5094172;27;20044;-74
2024/01/18 01:42:34;;;;;;;62.22;33.97;;;;;;;-0.98;100.00;99363.00;5077317;27;20112;-73
2024/01/18 01:45:00;;;;;;;61.47;31.85;;;;;;;-1.03;100.00;99364.94;5089473;27;20040;-74
2024/01/18 01:47:25;;;;;;;55.15;29.92;;;;;;;-1.07;100.00;99365.06;5098366;27;20038;-75
2024/01/18 01:49:51;;;;;;;64.53;31.98;;;;;;;-1.04;100.00;99374.56;5079136;27;20374;-74
2024/01/18 01:52:17;;;;;;;66.90;34.63;;;;;;;-1.05;100.00;99378.94;5090805;27;20028;-74
2024/01/18 01:54:46;;;;;;;60.72;33.35;;;;;;;-1.08;100.00;99380.81;5087702;27;20079;-74
2024/01/18 01:57:12;;;;;;;60.15;31.83;;;;;;;-1.10;100.00;99386.13;5099373;27;20034;-74
2024/01/18 01:59:40;;;;;;;67.18;34.88;;;;;;;-1.13;100.00;99388.84;5061742;27;20038;-74
2024/01/18 02:02:06;;;;;;;66.18;35.88;;;;;;;-1.16;100.00;99388.09;5097851;27;20039;-74
2024/01/18 02:04:32;;;;;;;70.13;33.95;;;;;;;-1.26;100.00;99387.59;5083745;27;20052;-74
2024/01/18 02:06:59;;;;;;;66.05;35.33;;;;;;;-1.29;100.00;99381.66;5075937;27;20028;-74
2024/01/18 02:09:26;;;;;;;63.97;33.70;;;;;;;-1.28;100.00;99385.97;5077237;28;20062;-75
2024/01/18 02:11:52;;;;;;;67.85;34.45;;;;;;;-1.27;100.00;99385.91;5095590;27;20039;-74
2024/01/18 02:14:18;;;;;;;59.80;32.45;;;;;;;-1.29;100.00;99392.97;5082909;27;20075;-74
2024/01/18 02:16:44;;;;;;;61.47;32.53;;;;;;;-1.31;100.00;99392.16;5094762;27;20028;-75
2024/01/18 02:19:09;;;;;;;62.42;33.00;;;;;;;-1.34;100.00;99393.16;5078050;27;20067;-74
2024/01/18 02:21:35;;;;;;;61.88;32.90;;;;;;;-1.38;100.00;99393.31;5093585;27;20041;-74
2024/01/18 02:24:24;;;;;;;67.63;33.88;;;;;;;-1.44;100.00;99404.88;5094090;27;20135;-74
2024/01/18 02:26:49;;;;;;;62.10;32.60;;;;;;;-1.47;100.00;99404.97;5086428;27;20036;-75
2024/01/18 02:29:15;;;;;;;63.03;31.15;;;;;;;-1.51;100.00;99405.13;5077396;27;20045;-74
2024/01/18 02:31:40;;;;;;;60.35;31.67;;;;;;;-1.52;100.00;99412.13;5070991;27;20075;-74
2024/01/18 02:34:10;;;;;;;47.13;25.63;;;;;;;-1.52;100.00;99406.91;5081478;27;22774;-74
2024/01/18 02:36:35;;;;;;;63.45;30.30;;;;;;;-1.56;100.00;99405.31;5093755;27;20106;-74
2024/01/18 02:39:02;;;;;;;49.13;28.08;;;;;;;-1.59;100.00;99410.66;5091519;27;20089;-74
2024/01/18 02:41:28;;;;;;;55.05;29.10;;;;;;;-1.65;100.00;99418.75;5092525;27;20056;-73
2024/01/18 02:43:54;;;;;;;53.45;26.13;;;;;;;-1.65;100.00;99408.28;5088700;27;20024;-73
2024/01/18 02:46:19;;;;;;;60.42;27.30;;;;;;;-1.63;100.00;99416.91;5095604;27;20477;-74
2024/01/18 02:48:45;;;;;;;52.42;26.77;;;;;;;-1.65;100.00;99409.13;5093440;27;20039;-73
2024/01/18 02:51:11;;;;;;;49.55;25.52;;;;;;;-1.66;100.00;99414.41;5090692;27;20067;-74
2024/01/18 02:53:36;;;;;;;49.50;25.15;;;;;;;-1.67;100.00;99418.78;5084016;27;20036;-76
2024/01/18 02:56:02;;;;;;;46.03;23.05;;;;;;;-1.67;100.00;99418.78;5076961;27;22551;-74
2024/01/18 02:58:27;;;;;;;49.15;25.27;;;;;;;-1.68;100.00;99411.00;5078696;27;20647;-74
2024/01/18 03:00:53;;;;;;;48.35;23.08;;;;;;;-1.68;100.00;99403.16;5086210;27;20040;-74
2024/01/18 03:03:19;;;;;;;48.05;24.52;;;;;;;-1.70;100.00;99410.22;5093976;27;20039;-74
2024/01/18 03:05:45;;;;;;;46.20;21.95;;;;;;;-1.73;100.00;99416.38;5089619;27;21053;-74
2024/01/18 03:08:11;;;;;;;45.50;22.35;;;;;;;-1.73;100.00;99411.16;5096426;27;20024;-74
2024/01/18 03:10:36;;;;;;;40.28;21.35;;;;;;;-1.74;100.00;99422.53;5088248;27;20038;-74
2024/01/18 03:13:02;;;;;;;44.90;22.45;;;;;;;-1.79;100.00;99414.00;5072843;27;21924;-74
2024/01/18 03:15:27;;;;;;;41.05;21.02;;;;;;;-1.77;100.00;99421.78;5097414;27;20040;-73
2024/01/18 03:17:52;;;;;;;42.50;20.45;;;;;;;-1.81;100.00;99418.41;5089874;27;20350;-75
2024/01/18 03:20:18;;;;;;;40.92;20.95;;;;;;;-1.82;100.00;99411.50;5075777;27;20040;-73
2024/01/18 03:22:43;;;;;;;42.15;20.15;;;;;;;-1.87;100.00;99414.25;5092550;27;20036;-74
2024/01/18 03:25:09;;;;;;;41.10;20.17;;;;;;;-1.85;100.00;99424.69;5092750;27;20782;-74
2024/01/18 03:27:35;;;;;;;51.50;22.58;;;;;;;-1.84;100.00;99427.22;5098048;27;20513;-75
2024/01/18 03:30:00;;;;;;;44.55;19.70;;;;;;;-1.82;100.00;99427.16;5080180;27;20033;-74
2024/01/18 03:32:26;;;;;;;43.47;20.35;;;;;;;-1.82;100.00;99421.94;5090632;27;20047;-74
2024/01/18 03:34:51;;;;;;;39.90;19.52;;;;;;;-1.87;100.00;99423.88;5096153;27;20035;-75
2024/01/18 03:37:17;;;;;;;44.00;19.88;;;;;;;-1.90;100.00;99426.59;5098188;27;20036;-74
2024/01/18 03:39:43;;;;;;;43.88;20.10;;;;;;;-2.01;100.00;99428.72;5078326;27;20136;-72
2024/01/18 03:42:09;;;;;;;40.63;19.88;;;;;;;-2.06;100.00;99428.03;5092298;27;20040;-72
2024/01/18 03:44:35;;;;;;;42.38;21.00;;;;;;;-2.09;100.00;99421.16;5092864;27;20055;-73
2024/01/18 03:47:00;;;;;;;47.13;20.33;;;;;;;-2.12;100.00;99422.09;5094525;27;20052;-74
2024/01/18 03:49:26;;;;;;;39.05;19.63;;;;;;;-2.15;100.00;99424.84;5082700;27;20113;-72
2024/01/18 03:51:52;;;;;;;41.63;20.85;;;;;;;-2.18;100.00;99424.94;5091737;27;20032;-73
2024/01/18 03:54:18;;;;;;;44.90;22.35;;;;;;;-2.24;100.00;99425.16;5079823;27;20074;-73
2024/01/18 03:56:44;;;;;;;41.25;21.25;;;;;;;-2.24;100.00;99425.16;5094668;27;20028;-72
2024/01/18 03:59:14;;;;;;;50.35;21.42;;;;;;;-2.31;100.00;99428.00;5091191;27;20032;-73
2024/01/18 04:01:39;;;;;;;44.17;21.92;;;;;;;-2.41;100.00;99433.56;5095738;27;20036;-73
2024/01/18 04:04:05;;;;;;;46.88;22.67;;;;;;;-2.39;100.00;99436.13;5098204;27;20249;-73
2024/01/18 04:06:30;;;;;;;46.47;23.15;;;;;;;-2.40;100.00;99431.81;5074162;27;20892;-73
2024/01/18 04:08:56;;;;;;;48.65;22.50;;;;;;;-2.54;100.00;99434.88;5088868;27;20024;-73
2024/01/18 04:11:21;;;;;;;46.20;23.80;;;;;;;-2.50;100.00;99444.31;5101513;27;20508;-72
2024/01/18 04:13:47;;;;;;;47.88;23.42;;;;;;;-2.48;100.00;99446.84;5098434;27;20174;-73
2024/01/18 04:16:13;;;;;;;48.72;23.08;;;;;;;-2.54;100.00;99445.31;5093114;27;20041;-74
2024/01/18 04:18:39;;;;;;;44.83;21.55;;;;;;;-2.57;100.00;99450.59;5094507;27;20036;-73
2024/01/18 04:21:04;;;;;;;42.97;21.73;;;;;;;-2.61;100.00;99456.84;5096584;27;20036;-73
2024/01/18 04:23:30;;;;;;;41.17;20.50;;;;;;;-2.64;100.00;99460.41;5099730;27;20068;-74
2024/01/18 04:25:55;;;;;;;40.80;18.15;;;;;;;-2.59;100.00;99460.25;5103110;27;20040;-73
2024/01/18 04:28:21;;;;;;;45.47;21.90;;;;;;;-2.63;100.00;99458.63;5080310;27;20028;-73
2024/01/18 04:30:47;;;;;;;37.00;18.58;;;;;;;-2.62;100.00;99460.34;5109360;27;20146;-73
2024/01/18 04:33:13;;;;;;;42.05;20.83;;;;;;;-2.94;100.00;99462.22;5088049;27;20024;-73
2024/01/18 04:35:39;;;;;;;37.80;18.75;;;;;;;-2.83;100.00;99464.47;5109179;27;20991;-73
2024/01/18 04:38:06;;;;;;;41.13;20.10;;;;;;;-2.81;100.00;99467.91;5098046;27;20035;-74
2024/01/18 04:40:33;;;;;;;44.45;21.90;;;;;;;-2.89;100.00;99465.53;5085455;27;20154;-72
2024/01/18 04:42:58;;;;;;;41.58;21.77;;;;;;;-2.97;100.00;99477.09;5093905;27;20035;-74
2024/01/18 04:45:24;;;;;;;51.67;24.98;;;;;;;-3.00;100.00;99480.66;5080664;27;20507;-74
2024/01/18 04:47:52;;;;;;;46.47;23.92;;;;;;;-2.92;100.00;99480.41;5101612;27;20028;-73
2024/01/18 04:50:20;;;;;;;48.75;24.00;;;;;;;-2.98;100.00;99486.66;5093497;27;20128;-73
2024/01/18 04:52:47;;;;;;;43.53;22.27;;;;;;;-2.98;100.00;99485.81;5100163;27;20032;-74
2024/01/18 04:55:13;;;;;;;45.45;23.77;;;;;;;-2.93;100.00;99490.00;5081451;27;20040;-75
2024/01/18 04:57:39;;;;;;;45.85;20.55;;;;;;;-2.94;100.00;99487.44;5103615;27;20378;-75
2024/01/18 05:00:10;;;;;;;44.97;20.77;;;;;;;-2.94;100.00;99488.28;5083771;27;20124;-72
2024/01/18 05:02:42;;;;;;;37.97;20.05;;;;;;;-3.00;100.00;99498.06;5099779;27;20990;-74
2024/01/18 05:05:08;;;;;;;44.17;21.17;;;;;;;-3.02;100.00;99495.47;5085028;27;20032;-75
2024/01/18 05:07:35;;;;;;;43.20;20.08;;;;;;;-3.08;100.00;99497.41;5096321;27;20024;-74
2024/01/18 05:10:01;;;;;;;39.58;20.92;;;;;;;-3.11;100.00;99511.41;5090403;27;20068;-76
2024/01/18 05:12:27;;;;;;;40.90;21.13;;;;;;;-3.11;100.00;99514.03;5067446;28;20680;-75
2024/01/18 05:14:52;;;;;;;39.13;20.30;;;;;;;-3.11;100.00;99508.81;5096803;27;20034;-74
2024/01/18 05:17:18;;;;;;;41.88;21.60;;;;;;;-3.16;100.00;99511.53;5077704;27;20073;-74
2024/01/18 05:19:43;;;;;;;48.72;22.02;;;;;;;-3.16;100.00;99523.72;5088734;27;20079;-75
2024/01/18 05:22:10;;;;;;;42.83;21.02;;;;;;;-3.19;100.00;99523.81;5096965;27;20143;-74
2024/01/18 05:24:35;;;;;;;47.40;21.73;;;;;;;-3.23;100.00;99514.34;5081399;27;20074;-74
2024/01/18 05:27:00;;;;;;;40.40;20.98;;;;;;;-3.23;100.00;99523.03;5067117;27;20034;-74
2024/01/18 05:29:26;;;;;;;52.63;22.10;;;;;;;-3.28;100.00;99518.84;5091286;27;20355;-74
2024/01/18 05:31:52;;;;;;;42.70;21.30;;;;;;;-3.23;100.00;99527.38;5097636;27;20033;-74
2024/01/18 05:34:17;;;;;;;47.65;21.15;;;;;;;-3.24;100.00;99528.28;5090519;27;20048;-74
2024/01/18 05:36:43;;;;;;;44.08;20.83;;;;;;;-3.25;100.00;99535.25;5091273;27;20036;-75
2024/01/18 05:39:08;;;;;;;37.38;19.25;;;;;;;-3.34;100.00;99540.72;5079140;27;20441;-74
2024/01/18 05:41:34;;;;;;;40.67;20.15;;;;;;;-3.33;100.00;99533.75;5098290;27;20105;-73
2024/01/18 05:43:59;;;;;;;40.03;20.35;;;;;;;-3.32;100.00;99538.06;5092875;27;20036;-73
2024/01/18 05:46:26;;;;;;;44.25;19.80;;;;;;;-3.30;100.00;99544.13;5105664;27;20462;-75
2024/01/18 05:48:51;;;;;;;43.13;20.65;;;;;;;-3.31;100.00;99550.19;5103100;27;20821;-74
2024/01/18 05:51:17;;;;;;;38.08;20.20;;;;;;;-3.33;100.00;99554.59;5094442;27;20125;-74
2024/01/18 05:53:43;;;;;;;42.90;20.42;;;;;;;-3.35;100.00;99564.22;5060711;27;20032;-74
2024/01/18 05:56:08;;;;;;;46.45;20.80;;;;;;;-3.45;100.00;99566.22;5074290;27;20381;-75
2024/01/18 05:58:34;;;;;;;50.05;23.48;;;;;;;-3.48;100.00;99569.75;5087939;27;20032;-74
2024/01/18 06:01:03;;;;;;;40.28;20.67;;;;;;;-3.55;100.00;99562.16;5081595;27;20036;-74
2024/01/18 06:03:28;;;;;;;46.53;22.30;;;;;;;-3.61;100.00;99568.41;5058422;27;20200;-74
2024/01/18 06:05:54;;;;;;;40.28;20.23;;;;;;;-3.52;100.00;99564.66;5100392;27;20084;-74
2024/01/18 06:08:19;;;;;;;45.38;21.85;;;;;;;-3.46;100.00;99577.56;5087991;27;20021;-74
2024/01/18 06:10:45;;;;;;;52.22;21.02;;;;;;;-3.46;100.00;99572.34;5086602;27;20032;-73
2024/01/18 06:13:10;;;;;;;39.08;19.33;;;;;;;-3.52;100.00;99577.69;5098841;27;20849;-75
2024/01/18 06:15:36;;;;;;;40.75;19.98;;;;;;;-3.53;100.00;99579.44;5095364;27;20094;-74
2024/01/18 06:18:03;;;;;;;40.80;20.13;;;;;;;-3.58;100.00;99586.53;5078150;27;20035;-74
2024/01/18 06:20:30;;;;;;;42.10;20.40;;;;;;;-3.55;100.00;99585.63;5093536;27;20394;-74
2024/01/18 06:22:57;;;;;;;46.70;21.13;;;;;;;-3.58;100.00;99590.88;5094511;27;20043;-75
2024/01/18 06:25:23;;;;;;;51.88;23.48;;;;;;;-3.59;100.00;99595.25;5077664;28;20933;-74
2024/01/18 06:27:49;;;;;;;47.03;22.40;;;;;;;-3.68;100.00;99601.53;5094863;27;20038;-74
2024/01/18 06:30:14;;;;;;;49.55;21.63;;;;;;;-3.62;100.00;99607.50;5097168;27;20263;-74
2024/01/18 06:32:40;;;;;;;43.17;22.08;;;;;;;-3.66;100.00;99611.94;5088777;27;20398;-74
2024/01/18 06:35:06;;;;;;;41.42;20.05;;;;;;;-3.67;100.00;99615.41;5069564;27;20499;-73
2024/01/18 06:37:32;;;;;;;34.35;19.35;;;;;;;-3.72;100.00;99615.53;5088087;27;20437;-74
2024/01/18 06:39:57;;;;;;;42.60;21.67;;;;;;;-3.79;100.00;99633.97;5088425;27;20036;-73
2024/01/18 06:42:23;;;;;;;42.10;19.77;;;;;;;-3.77;100.00;99634.78;5100762;27;20031;-74
2024/01/18 06:44:48;;;;;;;41.20;19.40;;;;;;;-3.79;100.00;99637.41;5089408;27;20028;-75
2024/01/18 06:47:13;;;;;;;42.45;20.48;;;;;;;-3.80;100.00;99638.31;5093821;27;20728;-74
2024/01/18 06:49:39;;;;;;;47.40;21.98;;;;;;;-3.85;100.00;99641.94;5061410;27;20473;-73
2024/01/18 06:52:05;;;;;;;45.72;21.35;;;;;;;-3.77;100.00;99646.03;5096380;27;20037;-74
2024/01/18 06:54:30;;;;;;;43.42;20.33;;;;;;;-3.75;100.00;99646.88;5097159;27;20054;-74
2024/01/18 06:56:56;;;;;;;48.42;22.60;;;;;;;-3.76;100.00;99639.09;5079701;27;20450;-74
2024/01/18 06:59:21;;;;;;;51.40;21.02;;;;;;;-3.86;100.00;99641.09;5080664;27;20039;-74
2024/01/18 07:01:46;;;;;;;50.80;22.88;;;;;;;-3.80;100.00;99642.69;5088546;27;20028;-74
2024/01/18 07:04:12;;;;;;;48.13;22.77;;;;;;;-3.85;100.00;99652.34;5098488;27;20040;-74
2024/01/18 07:06:37;;;;;;;38.67;18.88;;;;;;;-3.89;100.00;99648.94;5074799;27;20047;-74
2024/01/18 07:09:04;;;;;;;43.25;19.92;;;;;;;-3.88;100.00;99655.00;5081077;27;21006;-75
2024/01/18 07:11:30;;;;;;;47.08;22.17;;;;;;;-3.96;100.00;99655.22;5094570;27;20084;-74
2024/01/18 07:13:55;;;;;;;44.30;20.90;;;;;;;-3.93;100.00;99655.13;5092724;27;20185;-74
2024/01/18 07:16:20;;;;;;;49.10;22.52;;;;;;;-3.97;100.00;99667.34;5095193;27;20032;-75
2024/01/18 07:18:46;;;;;;;43.50;20.83;;;;;;;-4.10;100.00;99668.53;5086504;27;20032;-74
2024/01/18 07:21:11;;;;;;;38.85;21.52;;;;;;;-4.25;100.00;99672.34;5091541;27;20019;-73
2024/01/18 07:23:37;;;;;;;45.35;20.67;;;;;;;-4.06;100.00;99683.19;5073299;27;21107;-75
2024/01/18 07:26:02;;;;;;;49.20;22.65;;;;;;;-4.00;100.00;99682.19;5071887;27;20040;-74
2024/01/18 07:28:28;;;;;;;45.65;23.95;;;;;;;-4.11;100.00;99687.66;5091993;27;20040;-74
2024/01/18 07:30:53;;;;;;;50.15;25.60;;;;;;;-3.97;100.00;99690.78;5086132;27;20016;-75
2024/01/18 07:33:19;;;;;;;49.08;25.25;;;;;;;-4.00;100.00;99703.03;5091047;27;20035;-73
2024/01/18 07:35:44;;;;;;;49.95;24.63;;;;;;;-4.04;100.00;99704.84;5091279;27;20090;-74
2024/01/18 07:38:10;;;;;;;57.80;25.63;;;;;;;-4.09;100.00;99698.03;5087157;27;20031;-74
2024/01/18 07:40:35;;;;;;;45.05;22.05;;;;;;;-4.08;100.00;99710.13;5093803;27;20046;-74
2024/01/18 07:43:01;;;;;;;50.05;24.77;;;;;;;-4.18;100.00;99710.34;5071908;27;20043;-75
2024/01/18 07:45:26;;;;;;;49.65;22.50;;;;;;;-4.11;100.00;99710.22;5096480;27;20363;-73
2024/01/18 07:47:53;;;;;;;49.97;22.67;;;;;;;-4.13;100.00;99711.97;5092410;27;20040;-75
2024/01/18 07:50:18;;;;;;;46.92;23.40;;;;;;;-4.17;100.00;99711.19;5085913;27;20159;-74
2024/01/18 07:52:44;;;;;;;49.80;24.27;;;;;;;-4.15;100.00;99714.63;5086167;27;20402;-74
2024/01/18 07:55:09;;;;;;;51.90;24.92;;;;;;;-4.18;100.00;99719.88;5092958;27;20037;-74
2024/01/18 07:57:36;;;;;;;58.50;24.30;;;;;;;-4.08;100.00;99718.81;5096883;27;20047;-73
2024/01/18 08:00:03;;;;;;;54.03;25.63;;;;;;;-4.09;100.00;99724.06;5101644;27;20115;-73
2024/01/18 08:02:30;;;;;;;54.50;25.00;;;;;;;-4.00;100.00;99722.09;5102571;27;20032;-74
2024/01/18 08:04:57;;;;;;;50.85;24.58;;;;;;;-3.95;100.00;99729.81;5099080;27;20692;-74
2024/01/18 08:07:22;;;;;;;59.53;26.95;;;;;;;-3.96;100.00;99728.09;5104408;27;20020;-74
2024/01/18 08:09:48;;;;;;;53.67;25.85;;;;;;;-3.95;100.00;99741.09;5078455;27;20035;-74
2024/01/18 08:12:13;;;;;;;56.30;25.77;;;;;;;-4.06;100.00;99743.06;5094986;27;20050;-74
2024/01/18 08:14:43;;;;;;;62.97;27.23;;;;;;;-3.99;100.00;99746.38;5097198;27;20309;-75
2024/01/18 08:17:09;;;;;;;55.47;28.65;;;;;;;-3.99;100.00;99746.38;5080705;27;20043;-75
2024/01/18 08:19:34;;;;;;;56.60;26.90;;;;;;;-3.91;100.00;99753.16;5103918;27;20054;-74
2024/01/18 08:22:00;;;;;;;58.85;28.63;;;;;;;-3.88;100.00;99759.16;5087082;27;20045;-74
2024/01/18 08:24:25;;;;;;;53.63;27.85;;;;;;;-3.82;100.00;99765.09;5050251;28;20033;-75
2024/01/18 08:26:51;;;;;;;60.30;28.05;;;;;;;-3.79;100.00;99757.22;5095432;27;20043;-74
2024/01/18 08:29:17;;;;;;;64.60;31.10;;;;;;;-3.72;100.00;99763.13;5094158;27;20122;-74
2024/01/18 08:31:42;;;;;;;66.78;29.70;;;;;;;-3.68;100.00;99765.63;5078959;27;20139;-74
2024/01/18 08:34:08;;;;;;;71.32;31.27;;;;;;;-3.66;100.00;99776.03;5083206;27;20041;-74
2024/01/18 08:36:36;;;;;;;65.72;28.60;;;;;;;-3.60;100.00;99773.28;5085940;27;20043;-74
2024/01/18 08:39:02;;;;;;;62.25;28.05;;;;;;;-3.54;100.00;99775.75;5090923;27;20028;-73
2024/01/18 08:41:27;;;;;;;62.65;29.85;;;;;;;-3.54;100.00;99783.56;5099502;27;20044;-74
2024/01/18 08:43:53;;;;;;;62.80;29.17;;;;;;;-3.48;100.00;99788.63;5074119;28;20784;-73
2024/01/18 08:46:18;;;;;;;61.05;30.08;;;;;;;-3.50;100.00;99789.56;5094035;27;20036;-74
2024/01/18 08:48:44;;;;;;;73.50;33.28;;;;;;;-3.47;100.00;99802.50;5096108;27;20111;-74
2024/01/18 08:51:13;;;;;;;70.00;31.13;;;;;;;-3.52;100.00;99801.75;5057886;27;20040;-75
2024/01/18 08:53:40;;;;;;;57.80;29.23;;;;;;;-3.46;100.00;99799.88;5083474;27;20032;-75
2024/01/18 08:56:06;;;;;;;67.05;33.22;;;;;;;-3.46;100.00;99804.25;5098725;27;20036;-73
2024/01/18 08:58:32;;;;;;;62.38;32.20;;;;;;;-3.33;100.00;99804.78;5076413;27;20065;-73
2024/01/18 09:00:57;;;;;;;68.10;32.85;;;;;;;-3.28;100.00;99805.53;5085274;27;20035;-74
2024/01/18 09:03:23;;;;;;;62.03;31.05;;;;;;;-3.19;100.00;99818.38;5088562;27;20043;-74
2024/01/18 09:05:48;;;;;;;56.40;30.00;;;;;;;-3.09;100.00;99819.84;5096894;27;20038;-74
2024/01/18 09:08:13;;;;;;;60.47;28.98;;;;;;;-3.02;100.00;99821.41;5091785;27;20036;-74
2024/01/18 09:10:39;;;;;;;51.50;27.60;;;;;;;-2.94;100.00;99829.06;5094644;27;20863;-74
2024/01/18 09:13:06;;;;;;;55.95;25.23;;;;;;;-2.84;100.00;99832.28;5065630;27;20066;-75
2024/01/18 09:15:34;;;;;;;56.83;24.88;;;;;;;-2.70;100.00;99838.03;5075624;27;20023;-74
2024/01/18 09:17:59;;;;;;;47.55;24.77;;;;;;;-2.63;100.00;99843.03;5092572;27;20036;-74
2024/01/18 09:20:25;;;;;;;49.42;22.77;;;;;;;-2.53;100.00;99837.56;5091669;27;20181;-73
2024/01/18 09:22:50;;;;;;;43.45;21.55;;;;;;;-2.45;100.00;99857.38;5095001;27;20038;-74
2024/01/18 09:25:15;;;;;;;46.45;23.05;;;;;;;-2.40;100.00;99860.72;5089942;27;20217;-74
2024/01/18 09:27:41;;;;;;;46.88;22.92;;;;;;;-2.34;100.00;99857.06;5079006;27;20020;-75
2024/01/18 09:30:08;;;;;;;42.78;21.88;;;;;;;-2.24;100.00;99860.28;5093079;27;20028;-74
2024/01/18 09:32:34;;;;;;;41.25;21.05;;;;;;;-2.17;100.00;99878.34;5063092;27;20044;-75
2024/01/18 09:35:00;;;;;;;38.35;18.40;;;;;;;-2.12;100.00;99873.00;5099965;27;20044;-74
2024/01/18 09:37:27;;;;;;;39.42;18.80;;;;;;;-2.04;100.00;99881.50;5089787;27;20036;-74
2024/01/18 09:39:53;;;;;;;37.58;19.63;;;;;;;-1.95;100.00;99889.09;5100492;27;20028;-74
2024/01/18 09:42:21;;;;;;;37.47;18.48;;;;;;;-1.92;100.00;99891.59;5090216;27;20074;-74
2024/01/18 09:44:48;;;;;;;33.97;16.73;;;;;;;-1.85;100.00;99897.53;5097654;27;20045;-76
2024/01/18 09:47:18;;;;;;;32.72;16.60;;;;;;;-1.74;100.00;99907.69;5078452;27;20059;-74
2024/01/18 09:49:46;;;;;;;29.95;14.73;;;;;;;-1.60;100.00;99921.22;5086563;27;20141;-74
2024/01/18 09:52:12;;;;;;;30.90;15.45;;;;;;;-1.49;100.00;99913.91;5094669;27;20049;-74
2024/01/18 09:54:38;;;;;;;29.10;12.77;;;;;;;-1.44;100.00;99914.63;5092473;27;20079;-75
2024/01/18 09:57:07;;;;;;;26.85;12.90;;;;;;;-1.40;100.00;99918.88;5075329;27;20553;-74
2024/01/18 09:59:35;;;;;;;22.23;12.20;;;;;;;-1.32;100.00;99923.88;5080249;27;20040;-74
2024/01/18 10:02:01;;;;;;;32.17;11.77;;;;;;;-1.22;100.00;99924.44;5059089;28;20037;-74
2024/01/18 10:04:28;;;;;;;26.27;12.13;;;;;;;-1.16;100.00;99939.94;5094697;27;20035;-74
2024/01/18 10:06:54;;;;;;;18.27;10.82;;;;;;;-1.06;100.00;99931.78;5072173;27;20039;-74
2024/01/18 10:09:20;;;;;;;22.02;12.75;;;;;;;-1.00;100.00;99932.50;5081545;27;20150;-74
2024/01/18 10:11:46;;;;;;;25.15;12.88;;;;;;;-0.94;100.00;99938.41;5074103;27;20044;-74
2024/01/18 10:14:12;;;;;;;22.13;11.45;;;;;;;-0.89;100.00;99951.34;5064630;27;20024;-73
2024/01/18 10:16:39;;;;;;;28.38;13.82;;;;;;;-0.86;100.00;99959.94;5091125;27;20035;-74
2024/01/18 10:19:07;;;;;;;32.10;13.80;;;;;;;-0.84;100.00;99960.78;5075740;27;21012;-74
2024/01/18 10:21:34;;;;;;;26.52;13.20;;;;;;;-0.80;100.00;99953.69;5073750;27;20119;-74
2024/01/18 10:24:01;;;;;;;24.58;14.15;;;;;;;-0.79;100.00;99969.34;5089867;27;20949;-74
2024/01/18 10:26:29;;;;;;;30.50;13.25;;;;;;;-0.65;100.00;99963.69;5091279;27;20486;-73
2024/01/18 10:28:55;;;;;;;27.38;13.25;;;;;;;-0.63;100.00;99971.47;5086701;27;20028;-74
2024/01/18 10:31:21;;;;;;;27.48;13.55;;;;;;;-0.55;100.00;99974.72;5085052;27;20574;-73
2024/01/18 10:33:46;;;;;;;20.58;11.88;;;;;;;-0.50;100.00;99979.78;5087993;27;20039;-73
2024/01/18 10:36:13;;;;;;;22.63;11.50;;;;;;;-0.47;100.00;99984.94;5090501;27;20095;-74
2024/01/18 10:38:39;;;;;;;23.65;12.25;;;;;;;-0.39;100.00;99989.00;5097944;27;20032;-74
2024/01/18 10:41:07;;;;;;;28.05;11.88;;;;;;;-0.33;100.00;99994.06;5098681;27;20044;-74
2024/01/18 10:43:34;;;;;;;20.27;10.38;;;;;;;-0.26;100.00;100003.41;5092991;27;20122;-73
2024/01/18 10:46:00;;;;;;;19.90;10.90;;;;;;;-0.16;100.00;99988.25;5069770;28;20870;-73
2024/01/18 10:48:26;;;;;;;19.52;11.48;;;;;;;-0.11;100.00;99993.34;5072994;27;20293;-73
2024/01/18 10:50:56;;;;;;;26.50;12.45;;;;;;;-0.06;100.00;99997.50;5087690;27;20062;-73
2024/01/18 10:53:26;;;;;;;22.92;12.02;;;;;;;0.00;100.00;99993.84;5076629;27;20564;-73
2024/01/18 10:55:52;;;;;;;20.70;11.15;;;;;;;0.05;100.00;99991.94;5073575;27;20044;-73
2024/01/18 10:58:18;;;;;;;19.98;9.07;;;;;;;0.12;100.00;99992.56;5087255;27;21091;-73
2024/01/18 11:00:46;;;;;;;21.80;10.00;;;;;;;0.22;100.00;99984.34;5083789;27;20037;-73
2024/01/18 11:03:15;;;;;;;17.35;8.90;;;;;;;0.27;100.00;99994.66;5094502;27;20066;-74